sensor_id;sensor_type;location;lat;lon;timestamp;P1;P2;P0
77413;PMS7003;66486;49.992;19.164;2023-11-21T00:01:19;11.00;11.00;8.00
77413;PMS7003;66486;49.992;19.164;2023-11-21T00:03:45;16.00;15.00;10.20
77413;PMS7003;66486;49.992;19.164;2023-11-21T00:06:11;13.80;12.80;9.60
77413;PMS7003;66486;49.992;19.164;2023-11-21T00:08:37;14.60;13.00;9.40
77413;PMS7003;66486;49.992;19.164;2023-11-21T00:11:03;11.50;10.00;8.50
77413;PMS7003;66486;49.992;19.164;2023-11-21T00:13:31;17.20;15.40;10.20
77413;PMS7003;66486;49.992;19.164;2023-11-21T00:15:58;14.60;11.60;9.00
77413;PMS7003;66486;49.992;19.164;2023-11-21T00:18:24;10.40;9.60;6.00
77413;PMS7003;66486;49.992;19.164;2023-11-21T00:20:50;15.00;15.00;9.00
77413;PMS7003;66486;49.992;19.164;2023-11-21T00:23:16;14.80;14.80;9.80
77413;PMS7003;66486;49.992;19.164;2023-11-21T00:25:43;12.80;12.00;9.60
77413;PMS7003;66486;49.992;19.164;2023-11-21T00:28:09;16.40;16.40;12.60
77413;PMS7003;66486;49.992;19.164;2023-11-21T00:30:35;17.00;16.00;12.00
77413;PMS7003;66486;49.992;19.164;2023-11-21T00:33:01;17.20;15.40;9.20
77413;PMS7003;66486;49.992;19.164;2023-11-21T00:35:27;13.00;12.75;11.00
77413;PMS7003;66486;49.992;19.164;2023-11-21T00:37:53;24.40;24.40;15.40
77413;PMS7003;66486;49.992;19.164;2023-11-21T00:40:19;18.50;17.00;13.00
77413;PMS7003;66486;49.992;19.164;2023-11-21T00:42:47;18.00;18.00;12.20
77413;PMS7003;66486;49.992;19.164;2023-11-21T00:45:13;19.20;19.00;13.00
77413;PMS7003;66486;49.992;19.164;2023-11-21T00:47:39;21.00;20.20;12.00
77413;PMS7003;66486;49.992;19.164;2023-11-21T00:50:05;19.75;19.75;12.50
77413;PMS7003;66486;49.992;19.164;2023-11-21T00:52:32;21.80;19.40;15.00
77413;PMS7003;66486;49.992;19.164;2023-11-21T00:54:58;18.00;18.00;12.00
77413;PMS7003;66486;49.992;19.164;2023-11-21T00:57:28;13.00;13.00;9.80
77413;PMS7003;66486;49.992;19.164;2023-11-21T00:59:54;16.60;16.60;13.60
77413;PMS7003;66486;49.992;19.164;2023-11-21T01:02:21;25.60;25.60;15.40
77413;PMS7003;66486;49.992;19.164;2023-11-21T01:04:47;21.75;21.25;15.25
77413;PMS7003;66486;49.992;19.164;2023-11-21T01:07:13;23.80;21.20;15.40
77413;PMS7003;66486;49.992;19.164;2023-11-21T01:09:39;21.75;21.75;14.50
77413;PMS7003;66486;49.992;19.164;2023-11-21T01:12:05;22.00;21.00;13.00
77413;PMS7003;66486;49.992;19.164;2023-11-21T01:14:32;18.40;18.40;11.60
77413;PMS7003;66486;49.992;19.164;2023-11-21T01:16:58;27.60;26.80;20.20
77413;PMS7003;66486;49.992;19.164;2023-11-21T01:19:24;32.75;30.75;20.00
77413;PMS7003;66486;49.992;19.164;2023-11-21T01:21:50;41.00;39.80;25.20
77413;PMS7003;66486;49.992;19.164;2023-11-21T01:24:17;25.80;25.80;18.80
77413;PMS7003;66486;49.992;19.164;2023-11-21T01:26:43;17.20;16.40;11.40
77413;PMS7003;66486;49.992;19.164;2023-11-21T01:29:10;12.40;12.40;9.80
77413;PMS7003;66486;49.992;19.164;2023-11-21T01:31:37;10.40;10.40;9.80
77413;PMS7003;66486;49.992;19.164;2023-11-21T01:34:02;15.00;15.00;11.50
77413;PMS7003;66486;49.992;19.164;2023-11-21T01:36:32;12.00;11.00;8.60
77413;PMS7003;66486;49.992;19.164;2023-11-21T01:38:58;9.80;9.80;7.00
77413;PMS7003;66486;49.992;19.164;2023-11-21T01:41:28;8.80;8.80;7.00
77413;PMS7003;66486;49.992;19.164;2023-11-21T01:43:54;10.40;9.20;7.00
77413;PMS7003;66486;49.992;19.164;2023-11-21T01:46:20;8.60;8.60;6.40
77413;PMS7003;66486;49.992;19.164;2023-11-21T01:48:48;10.40;10.40;7.40
77413;PMS7003;66486;49.992;19.164;2023-11-21T01:51:15;10.00;10.00;8.60
77413;PMS7003;66486;49.992;19.164;2023-11-21T01:53:41;8.20;8.20;5.20
77413;PMS7003;66486;49.992;19.164;2023-11-21T01:56:08;7.40;7.40;6.00
77413;PMS7003;66486;49.992;19.164;2023-11-21T01:58:35;9.00;9.00;6.80
77413;PMS7003;66486;49.992;19.164;2023-11-21T02:01:01;9.80;9.40;7.60
77413;PMS7003;66486;49.992;19.164;2023-11-21T02:03:27;8.80;8.40;6.20
77413;PMS7003;66486;49.992;19.164;2023-11-21T02:05:53;6.60;6.60;4.00
77413;PMS7003;66486;49.992;19.164;2023-11-21T02:08:19;6.60;6.60;6.00
77413;PMS7003;66486;49.992;19.164;2023-11-21T02:10:46;10.20;9.00;6.80
77413;PMS7003;66486;49.992;19.164;2023-11-21T02:13:13;7.80;7.00;5.20
77413;PMS7003;66486;49.992;19.164;2023-11-21T02:15:39;9.20;8.20;6.20
77413;PMS7003;66486;49.992;19.164;2023-11-21T02:18:05;11.00;10.00;7.00
77413;PMS7003;66486;49.992;19.164;2023-11-21T02:20:31;9.80;9.80;6.80
77413;PMS7003;66486;49.992;19.164;2023-11-21T02:23:00;8.60;8.60;7.00
77413;PMS7003;66486;49.992;19.164;2023-11-21T02:25:31;9.00;8.60;6.00
77413;PMS7003;66486;49.992;19.164;2023-11-21T02:28:01;10.00;8.20;6.60
77413;PMS7003;66486;49.992;19.164;2023-11-21T02:30:28;6.60;6.20;4.40
77413;PMS7003;66486;49.992;19.164;2023-11-21T02:32:57;11.80;10.20;6.40
77413;PMS7003;66486;49.992;19.164;2023-11-21T02:35:23;7.00;7.00;5.20
77413;PMS7003;66486;49.992;19.164;2023-11-21T02:37:53;13.20;13.00;7.00
77413;PMS7003;66486;49.992;19.164;2023-11-21T02:40:19;10.20;9.20;7.00
77413;PMS7003;66486;49.992;19.164;2023-11-21T02:42:50;9.00;9.00;6.60
77413;PMS7003;66486;49.992;19.164;2023-11-21T02:45:17;14.40;11.60;8.60
77413;PMS7003;66486;49.992;19.164;2023-11-21T02:47:44;11.60;10.80;9.00
77413;PMS7003;66486;49.992;19.164;2023-11-21T02:50:10;9.00;7.40;7.00
77413;PMS7003;66486;49.992;19.164;2023-11-21T02:52:37;12.60;11.20;9.20
77413;PMS7003;66486;49.992;19.164;2023-11-21T02:55:04;9.40;9.40;7.80
77413;PMS7003;66486;49.992;19.164;2023-11-21T02:57:32;11.00;9.80;6.20
77413;PMS7003;66486;49.992;19.164;2023-11-21T02:59:59;10.00;10.00;7.80
77413;PMS7003;66486;49.992;19.164;2023-11-21T03:02:25;12.40;12.40;6.40
77413;PMS7003;66486;49.992;19.164;2023-11-21T03:04:51;7.80;6.60;6.00
77413;PMS7003;66486;49.992;19.164;2023-11-21T03:07:17;7.80;7.80;6.60
77413;PMS7003;66486;49.992;19.164;2023-11-21T03:09:47;9.40;9.00;7.00
77413;PMS7003;66486;49.992;19.164;2023-11-21T03:12:13;5.00;5.00;4.50
77413;PMS7003;66486;49.992;19.164;2023-11-21T03:14:39;10.00;9.60;5.80
77413;PMS7003;66486;49.992;19.164;2023-11-21T03:17:05;7.00;6.60;5.20
77413;PMS7003;66486;49.992;19.164;2023-11-21T03:19:32;6.00;6.00;4.40
77413;PMS7003;66486;49.992;19.164;2023-11-21T03:21:58;5.60;5.40;4.80
77413;PMS7003;66486;49.992;19.164;2023-11-21T03:24:24;7.00;7.00;6.00
77413;PMS7003;66486;49.992;19.164;2023-11-21T03:26:51;8.60;6.60;4.00
77413;PMS7003;66486;49.992;19.164;2023-11-21T03:29:18;13.00;12.20;7.60
77413;PMS7003;66486;49.992;19.164;2023-11-21T03:31:44;18.25;18.25;14.00
77413;PMS7003;66486;49.992;19.164;2023-11-21T03:34:14;8.20;8.20;7.00
77413;PMS7003;66486;49.992;19.164;2023-11-21T03:36:41;6.40;6.00;4.00
77413;PMS7003;66486;49.992;19.164;2023-11-21T03:39:08;6.80;6.80;5.60
77413;PMS7003;66486;49.992;19.164;2023-11-21T03:41:33;9.75;9.75;7.00
77413;PMS7003;66486;49.992;19.164;2023-11-21T03:43:59;7.80;7.00;4.80
77413;PMS7003;66486;49.992;19.164;2023-11-21T03:46:25;11.00;10.00;7.00
77413;PMS7003;66486;49.992;19.164;2023-11-21T03:48:51;10.00;9.20;7.40
77413;PMS7003;66486;49.992;19.164;2023-11-21T03:51:17;7.50;7.50;5.50
77413;PMS7003;66486;49.992;19.164;2023-11-21T03:53:43;9.00;9.00;6.60
77413;PMS7003;66486;49.992;19.164;2023-11-21T03:56:09;10.50;10.50;9.00
77413;PMS7003;66486;49.992;19.164;2023-11-21T03:58:35;9.60;9.40;7.40
77413;PMS7003;66486;49.992;19.164;2023-11-21T04:01:01;10.25;9.75;6.75
77413;PMS7003;66486;49.992;19.164;2023-11-21T04:03:28;9.60;9.00;4.00
77413;PMS7003;66486;49.992;19.164;2023-11-21T04:05:53;10.25;9.50;7.50
77413;PMS7003;66486;49.992;19.164;2023-11-21T04:08:19;8.60;7.20;4.40
77413;PMS7003;66486;49.992;19.164;2023-11-21T04:10:45;11.50;9.75;6.50
77413;PMS7003;66486;49.992;19.164;2023-11-21T04:13:11;9.00;9.00;8.20
77413;PMS7003;66486;49.992;19.164;2023-11-21T04:15:37;9.50;9.50;7.50
77413;PMS7003;66486;49.992;19.164;2023-11-21T04:18:09;10.80;10.80;8.20
77413;PMS7003;66486;49.992;19.164;2023-11-21T04:20:36;14.20;12.40;9.20
77413;PMS7003;66486;49.992;19.164;2023-11-21T04:23:02;0.80;0.80;0.80
77413;PMS7003;66486;49.992;19.164;2023-11-21T04:25:28;9.20;9.20;6.80
77413;PMS7003;66486;49.992;19.164;2023-11-21T04:27:54;10.00;10.00;7.40
77413;PMS7003;66486;49.992;19.164;2023-11-21T04:30:20;11.00;11.00;9.00
77413;PMS7003;66486;49.992;19.164;2023-11-21T04:32:46;10.00;10.00;7.80
77413;PMS7003;66486;49.992;19.164;2023-11-21T04:35:12;11.00;10.00;9.00
77413;PMS7003;66486;49.992;19.164;2023-11-21T04:37:38;18.40;16.40;10.00
77413;PMS7003;66486;49.992;19.164;2023-11-21T04:40:05;13.80;12.80;10.60
77413;PMS7003;66486;49.992;19.164;2023-11-21T04:42:34;35.80;35.00;18.20
77413;PMS7003;66486;49.992;19.164;2023-11-21T04:45:01;24.00;20.00;13.80
77413;PMS7003;66486;49.992;19.164;2023-11-21T04:47:30;10.80;10.80;8.20
77413;PMS7003;66486;49.992;19.164;2023-11-21T04:49:56;11.75;11.75;7.00
77413;PMS7003;66486;49.992;19.164;2023-11-21T04:52:22;11.80;11.80;9.00
77413;PMS7003;66486;49.992;19.164;2023-11-21T04:54:48;12.00;12.00;10.75
77413;PMS7003;66486;49.992;19.164;2023-11-21T04:57:14;14.80;14.20;9.80
77413;PMS7003;66486;49.992;19.164;2023-11-21T04:59:43;9.00;9.00;7.00
77413;PMS7003;66486;49.992;19.164;2023-11-21T05:02:09;13.00;12.80;9.00
77413;PMS7003;66486;49.992;19.164;2023-11-21T05:04:35;14.75;14.25;11.00
77413;PMS7003;66486;49.992;19.164;2023-11-21T05:07:01;12.00;12.00;7.00
77413;PMS7003;66486;49.992;19.164;2023-11-21T05:09:27;19.00;19.00;12.25
77413;PMS7003;66486;49.992;19.164;2023-11-21T05:11:57;15.80;15.00;12.00
77413;PMS7003;66486;49.992;19.164;2023-11-21T05:14:23;12.40;12.40;10.00
77413;PMS7003;66486;49.992;19.164;2023-11-21T05:16:49;20.00;18.80;13.00
77413;PMS7003;66486;49.992;19.164;2023-11-21T05:19:16;18.00;17.20;10.00
77413;PMS7003;66486;49.992;19.164;2023-11-21T05:21:42;19.40;19.40;12.20
77413;PMS7003;66486;49.992;19.164;2023-11-21T05:24:08;19.00;19.00;15.00
77413;PMS7003;66486;49.992;19.164;2023-11-21T05:26:35;18.80;18.80;13.60
77413;PMS7003;66486;49.992;19.164;2023-11-21T05:29:01;15.00;15.00;10.00
77413;PMS7003;66486;49.992;19.164;2023-11-21T05:31:27;13.40;13.40;10.00
77413;PMS7003;66486;49.992;19.164;2023-11-21T05:33:52;19.50;18.75;14.50
77413;PMS7003;66486;49.992;19.164;2023-11-21T05:36:19;9.40;9.40;9.00
77413;PMS7003;66486;49.992;19.164;2023-11-21T05:38:44;21.00;18.50;12.50
77413;PMS7003;66486;49.992;19.164;2023-11-21T05:41:11;14.60;12.20;9.00
77413;PMS7003;66486;49.992;19.164;2023-11-21T05:43:38;3.40;3.40;1.00
77413;PMS7003;66486;49.992;19.164;2023-11-21T05:46:05;10.80;10.20;7.00
77413;PMS7003;66486;49.992;19.164;2023-11-21T05:48:33;11.20;10.00;7.40
77413;PMS7003;66486;49.992;19.164;2023-11-21T05:50:59;16.40;12.40;7.40
77413;PMS7003;66486;49.992;19.164;2023-11-21T05:53:27;12.00;12.00;7.00
77413;PMS7003;66486;49.992;19.164;2023-11-21T05:55:53;11.60;10.80;7.40
77413;PMS7003;66486;49.992;19.164;2023-11-21T05:58:19;9.75;8.75;6.50
77413;PMS7003;66486;49.992;19.164;2023-11-21T06:00:45;10.40;10.40;7.00
77413;PMS7003;66486;49.992;19.164;2023-11-21T06:03:11;12.80;11.20;7.80
77413;PMS7003;66486;49.992;19.164;2023-11-21T06:05:38;16.20;15.40;11.60
77413;PMS7003;66486;49.992;19.164;2023-11-21T06:08:04;12.00;10.00;6.00
77413;PMS7003;66486;49.992;19.164;2023-11-21T06:10:30;13.00;12.00;10.00
77413;PMS7003;66486;49.992;19.164;2023-11-21T06:12:55;13.25;12.50;8.00
77413;PMS7003;66486;49.992;19.164;2023-11-21T06:15:23;12.00;9.60;7.00
77413;PMS7003;66486;49.992;19.164;2023-11-21T06:17:49;12.20;8.80;6.00
77413;PMS7003;66486;49.992;19.164;2023-11-21T06:20:18;14.20;14.20;12.00
77413;PMS7003;66486;49.992;19.164;2023-11-21T06:22:46;15.00;15.00;9.80
77413;PMS7003;66486;49.992;19.164;2023-11-21T06:25:14;15.40;14.20;10.00
77413;PMS7003;66486;49.992;19.164;2023-11-21T06:27:44;11.60;9.60;6.60
77413;PMS7003;66486;49.992;19.164;2023-11-21T06:30:13;12.00;12.00;8.20
77413;PMS7003;66486;49.992;19.164;2023-11-21T06:32:41;12.00;10.40;7.40
77413;PMS7003;66486;49.992;19.164;2023-11-21T06:35:11;12.80;12.80;10.80
77413;PMS7003;66486;49.992;19.164;2023-11-21T06:37:37;10.80;9.40;4.00
77413;PMS7003;66486;49.992;19.164;2023-11-21T06:40:03;16.40;16.40;10.00
77413;PMS7003;66486;49.992;19.164;2023-11-21T06:42:30;16.60;15.00;9.80
77413;PMS7003;66486;49.992;19.164;2023-11-21T06:44:56;14.60;13.80;9.00
77413;PMS7003;66486;49.992;19.164;2023-11-21T06:47:23;18.00;17.60;11.80
77413;PMS7003;66486;49.992;19.164;2023-11-21T06:49:55;18.00;18.00;13.00
77413;PMS7003;66486;49.992;19.164;2023-11-21T06:52:21;15.00;12.20;9.00
77413;PMS7003;66486;49.992;19.164;2023-11-21T06:54:47;19.00;17.80;14.20
77413;PMS7003;66486;49.992;19.164;2023-11-21T06:57:17;15.20;15.20;9.60
77413;PMS7003;66486;49.992;19.164;2023-11-21T06:59:43;21.60;21.60;15.00
77413;PMS7003;66486;49.992;19.164;2023-11-21T07:02:09;19.00;19.00;13.40
77413;PMS7003;66486;49.992;19.164;2023-11-21T07:04:36;28.00;26.50;17.50
77413;PMS7003;66486;49.992;19.164;2023-11-21T07:07:02;24.60;23.60;16.00
77413;PMS7003;66486;49.992;19.164;2023-11-21T07:09:29;24.20;21.40;14.20
77413;PMS7003;66486;49.992;19.164;2023-11-21T07:11:56;18.60;16.80;11.20
77413;PMS7003;66486;49.992;19.164;2023-11-21T07:14:22;13.50;13.50;9.00
77413;PMS7003;66486;49.992;19.164;2023-11-21T07:16:49;19.40;18.40;15.00
77413;PMS7003;66486;49.992;19.164;2023-11-21T07:19:14;18.00;17.00;12.00
77413;PMS7003;66486;49.992;19.164;2023-11-21T07:21:41;9.60;9.00;3.00
77413;PMS7003;66486;49.992;19.164;2023-11-21T07:24:07;18.50;17.50;11.50
77413;PMS7003;66486;49.992;19.164;2023-11-21T07:26:34;20.40;18.60;13.00
77413;PMS7003;66486;49.992;19.164;2023-11-21T07:29:01;18.80;17.60;12.60
77413;PMS7003;66486;49.992;19.164;2023-11-21T07:31:28;15.00;15.00;10.00
77413;PMS7003;66486;49.992;19.164;2023-11-21T07:33:55;14.20;14.20;10.00
77413;PMS7003;66486;49.992;19.164;2023-11-21T07:36:24;20.60;18.00;12.40
77413;PMS7003;66486;49.992;19.164;2023-11-21T07:38:51;16.80;15.60;10.00
77413;PMS7003;66486;49.992;19.164;2023-11-21T07:41:17;23.00;23.00;14.80
77413;PMS7003;66486;49.992;19.164;2023-11-21T07:43:44;18.60;18.20;10.80
77413;PMS7003;66486;49.992;19.164;2023-11-21T07:46:11;16.40;16.40;10.80
77413;PMS7003;66486;49.992;19.164;2023-11-21T07:48:40;18.60;16.60;11.20
77413;PMS7003;66486;49.992;19.164;2023-11-21T07:51:08;18.60;17.20;10.00
77413;PMS7003;66486;49.992;19.164;2023-11-21T07:53:34;16.00;16.00;11.60
77413;PMS7003;66486;49.992;19.164;2023-11-21T07:56:04;34.20;33.40;18.60
77413;PMS7003;66486;49.992;19.164;2023-11-21T07:58:34;32.20;25.60;15.20
77413;PMS7003;66486;49.992;19.164;2023-11-21T08:01:02;29.60;24.60;15.60
77413;PMS7003;66486;49.992;19.164;2023-11-21T08:03:29;30.40;27.00;13.00
77413;PMS7003;66486;49.992;19.164;2023-11-21T08:05:56;25.80;24.40;14.60
77413;PMS7003;66486;49.992;19.164;2023-11-21T08:08:23;18.80;18.00;10.80
77413;PMS7003;66486;49.992;19.164;2023-11-21T08:10:50;18.00;16.00;12.00
77413;PMS7003;66486;49.992;19.164;2023-11-21T08:13:25;16.80;15.40;10.00
77413;PMS7003;66486;49.992;19.164;2023-11-21T08:15:56;18.00;18.00;12.20
77413;PMS7003;66486;49.992;19.164;2023-11-21T08:18:28;14.20;14.20;9.00
77413;PMS7003;66486;49.992;19.164;2023-11-21T08:20:55;26.20;25.80;16.00
77413;PMS7003;66486;49.992;19.164;2023-11-21T08:23:21;30.20;24.00;13.00
77413;PMS7003;66486;49.992;19.164;2023-11-21T08:25:51;24.20;24.00;13.00
77413;PMS7003;66486;49.992;19.164;2023-11-21T08:28:18;39.60;36.60;22.60
77413;PMS7003;66486;49.992;19.164;2023-11-21T08:30:46;62.40;54.20;33.20
77413;PMS7003;66486;49.992;19.164;2023-11-21T08:33:12;41.00;36.00;22.80
77413;PMS7003;66486;49.992;19.164;2023-11-21T08:35:39;26.40;24.00;16.80
77413;PMS7003;66486;49.992;19.164;2023-11-21T08:38:04;25.00;24.25;12.50
77413;PMS7003;66486;49.992;19.164;2023-11-21T08:40:31;24.00;24.00;17.20
77413;PMS7003;66486;49.992;19.164;2023-11-21T08:42:57;18.00;15.60;9.40
77413;PMS7003;66486;49.992;19.164;2023-11-21T08:45:26;31.60;30.00;18.60
77413;PMS7003;66486;49.992;19.164;2023-11-21T08:47:52;23.75;22.25;15.75
77413;PMS7003;66486;49.992;19.164;2023-11-21T08:50:18;27.20;22.80;15.00
77413;PMS7003;66486;49.992;19.164;2023-11-21T08:52:44;30.00;28.80;18.20
77413;PMS7003;66486;49.992;19.164;2023-11-21T08:55:14;23.00;22.00;12.80
77413;PMS7003;66486;49.992;19.164;2023-11-21T08:57:40;25.20;23.00;15.80
77413;PMS7003;66486;49.992;19.164;2023-11-21T09:00:09;22.40;18.60;11.60
77413;PMS7003;66486;49.992;19.164;2023-11-21T09:02:37;23.20;19.00;12.00
77413;PMS7003;66486;49.992;19.164;2023-11-21T09:05:08;17.60;17.60;11.60
77413;PMS7003;66486;49.992;19.164;2023-11-21T09:07:39;12.40;11.60;6.60
77413;PMS7003;66486;49.992;19.164;2023-11-21T09:10:13;19.00;18.40;12.80
77413;PMS7003;66486;49.992;19.164;2023-11-21T09:12:40;18.60;18.60;10.00
77413;PMS7003;66486;49.992;19.164;2023-11-21T09:15:06;20.40;18.80;10.80
77413;PMS7003;66486;49.992;19.164;2023-11-21T09:17:35;13.00;13.00;9.20
77413;PMS7003;66486;49.992;19.164;2023-11-21T09:20:01;7.00;6.20;3.20
77413;PMS7003;66486;49.992;19.164;2023-11-21T09:22:31;18.00;16.00;12.20
77413;PMS7003;66486;49.992;19.164;2023-11-21T09:24:58;22.60;20.00;13.00
77413;PMS7003;66486;49.992;19.164;2023-11-21T09:27:24;18.00;15.80;12.00
77413;PMS7003;66486;49.992;19.164;2023-11-21T09:29:51;15.00;14.20;12.00
77413;PMS7003;66486;49.992;19.164;2023-11-21T09:32:18;21.00;15.40;9.60
77413;PMS7003;66486;49.992;19.164;2023-11-21T09:34:44;12.40;12.40;9.20
77413;PMS7003;66486;49.992;19.164;2023-11-21T09:37:11;14.20;14.20;9.00
77413;PMS7003;66486;49.992;19.164;2023-11-21T09:39:36;15.75;15.00;9.50
77413;PMS7003;66486;49.992;19.164;2023-11-21T09:42:08;17.20;16.60;9.20
77413;PMS7003;66486;49.992;19.164;2023-11-21T09:47:27;13.40;13.00;8.60
77413;PMS7003;66486;49.992;19.164;2023-11-21T09:49:54;22.00;21.40;13.40
77413;PMS7003;66486;49.992;19.164;2023-11-21T09:52:24;18.00;16.40;10.00
77413;PMS7003;66486;49.992;19.164;2023-11-21T09:54:51;18.40;17.20;13.00
77413;PMS7003;66486;49.992;19.164;2023-11-21T09:57:19;9.00;9.00;6.40
77413;PMS7003;66486;49.992;19.164;2023-11-21T09:59:47;15.20;14.40;10.00
77413;PMS7003;66486;49.992;19.164;2023-11-21T10:02:17;14.80;13.40;10.00
77413;PMS7003;66486;49.992;19.164;2023-11-21T10:04:44;22.00;21.20;13.40
77413;PMS7003;66486;49.992;19.164;2023-11-21T10:07:12;20.40;18.20;11.60
77413;PMS7003;66486;49.992;19.164;2023-11-21T10:09:43;20.20;18.60;10.40
77413;PMS7003;66486;49.992;19.164;2023-11-21T10:12:10;17.20;17.20;11.60
77413;PMS7003;66486;49.992;19.164;2023-11-21T10:14:40;24.40;22.00;14.60
77413;PMS7003;66486;49.992;19.164;2023-11-21T10:17:08;18.60;18.00;12.40
77413;PMS7003;66486;49.992;19.164;2023-11-21T10:19:37;21.00;21.00;13.00
77413;PMS7003;66486;49.992;19.164;2023-11-21T10:22:05;35.00;34.20;21.20
77413;PMS7003;66486;49.992;19.164;2023-11-21T10:24:32;23.60;21.80;15.60
77413;PMS7003;66486;49.992;19.164;2023-11-21T10:26:59;24.60;24.40;15.40
77413;PMS7003;66486;49.992;19.164;2023-11-21T10:29:30;22.00;19.40;12.80
77413;PMS7003;66486;49.992;19.164;2023-11-21T10:31:56;18.00;16.80;12.80
77413;PMS7003;66486;49.992;19.164;2023-11-21T10:34:24;20.20;17.20;10.00
77413;PMS7003;66486;49.992;19.164;2023-11-21T10:36:50;16.80;16.00;9.60
77413;PMS7003;66486;49.992;19.164;2023-11-21T10:39:16;16.00;15.25;10.50
77413;PMS7003;66486;49.992;19.164;2023-11-21T10:41:44;25.00;19.00;10.40
77413;PMS7003;66486;49.992;19.164;2023-11-21T10:44:17;12.80;12.60;7.00
77413;PMS7003;66486;49.992;19.164;2023-11-21T10:46:48;16.40;15.80;10.80
77413;PMS7003;66486;49.992;19.164;2023-11-21T10:49:19;14.20;14.20;9.00
77413;PMS7003;66486;49.992;19.164;2023-11-21T10:51:46;17.60;17.60;12.00
77413;PMS7003;66486;49.992;19.164;2023-11-21T10:54:18;16.80;15.00;9.60
77413;PMS7003;66486;49.992;19.164;2023-11-21T10:56:57;19.40;15.80;10.80
77413;PMS7003;66486;49.992;19.164;2023-11-21T10:59:31;17.00;15.40;9.60
77413;PMS7003;66486;49.992;19.164;2023-11-21T11:01:58;15.60;15.60;9.60
77413;PMS7003;66486;49.992;19.164;2023-11-21T11:04:26;14.20;14.20;10.80
77413;PMS7003;66486;49.992;19.164;2023-11-21T11:06:57;23.00;22.00;13.80
77413;PMS7003;66486;49.992;19.164;2023-11-21T11:09:27;23.40;22.20;13.40
77413;PMS7003;66486;49.992;19.164;2023-11-21T11:11:54;15.00;14.60;11.60
77413;PMS7003;66486;49.992;19.164;2023-11-21T11:14:20;7.40;4.80;0.00
77413;PMS7003;66486;49.992;19.164;2023-11-21T11:16:53;18.40;18.40;13.00
77413;PMS7003;66486;49.992;19.164;2023-11-21T11:19:20;13.00;12.40;4.80
77413;PMS7003;66486;49.992;19.164;2023-11-21T11:35:17;15.75;14.00;10.50
77413;PMS7003;66486;49.992;19.164;2023-11-21T11:37:49;22.00;21.20;15.00
77413;PMS7003;66486;49.992;19.164;2023-11-21T11:40:15;15.80;14.80;9.40
77413;PMS7003;66486;49.992;19.164;2023-11-21T11:43:01;13.00;13.00;9.20
77413;PMS7003;66486;49.992;19.164;2023-11-21T11:45:33;12.60;12.00;9.40
77413;PMS7003;66486;49.992;19.164;2023-11-21T11:48:07;19.00;18.80;12.00
77413;PMS7003;66486;49.992;19.164;2023-11-21T11:50:33;11.60;11.60;9.00
77413;PMS7003;66486;49.992;19.164;2023-11-21T11:53:13;10.80;10.80;8.40
77413;PMS7003;66486;49.992;19.164;2023-11-21T11:55:40;15.80;13.80;9.00
77413;PMS7003;66486;49.992;19.164;2023-11-21T11:58:07;10.80;10.80;9.20
77413;PMS7003;66486;49.992;19.164;2023-11-21T12:00:33;18.80;18.00;12.00
77413;PMS7003;66486;49.992;19.164;2023-11-21T12:03:03;18.60;17.60;13.00
77413;PMS7003;66486;49.992;19.164;2023-11-21T12:05:33;21.80;20.20;12.80
77413;PMS7003;66486;49.992;19.164;2023-11-21T12:08:08;16.00;15.00;10.40
77413;PMS7003;66486;49.992;19.164;2023-11-21T12:10:38;15.40;14.80;11.40
77413;PMS7003;66486;49.992;19.164;2023-11-21T12:13:06;16.40;16.40;10.40
77413;PMS7003;66486;49.992;19.164;2023-11-21T12:15:34;27.20;26.60;18.60
77413;PMS7003;66486;49.992;19.164;2023-11-21T12:18:01;20.40;20.20;14.00
77413;PMS7003;66486;49.992;19.164;2023-11-21T12:20:27;16.00;16.00;12.80
77413;PMS7003;66486;49.992;19.164;2023-11-21T12:22:55;17.20;17.20;10.40
77413;PMS7003;66486;49.992;19.164;2023-11-21T12:25:28;14.40;13.80;9.20
77413;PMS7003;66486;49.992;19.164;2023-11-21T12:27:58;15.00;15.00;9.20
77413;PMS7003;66486;49.992;19.164;2023-11-21T12:30:31;14.60;13.60;11.60
77413;PMS7003;66486;49.992;19.164;2023-11-21T12:33:01;11.80;9.80;8.60
77413;PMS7003;66486;49.992;19.164;2023-11-21T12:35:28;13.20;12.40;9.40
77413;PMS7003;66486;49.992;19.164;2023-11-21T12:37:56;12.00;12.00;9.00
77413;PMS7003;66486;49.992;19.164;2023-11-21T12:40:25;10.40;10.40;6.20
77413;PMS7003;66486;49.992;19.164;2023-11-21T12:42:54;9.40;9.40;8.20
77413;PMS7003;66486;49.992;19.164;2023-11-21T12:45:22;10.80;10.00;8.60
77413;PMS7003;66486;49.992;19.164;2023-11-21T12:48:03;9.40;8.20;5.20
77413;PMS7003;66486;49.992;19.164;2023-11-21T12:50:34;14.40;12.20;7.00
77413;PMS7003;66486;49.992;19.164;2023-11-21T12:53:09;12.40;12.40;7.00
77413;PMS7003;66486;49.992;19.164;2023-11-21T12:55:43;12.00;12.00;9.00
77413;PMS7003;66486;49.992;19.164;2023-11-21T12:58:15;13.40;13.00;9.00
77413;PMS7003;66486;49.992;19.164;2023-11-21T13:00:45;16.20;15.40;9.40
77413;PMS7003;66486;49.992;19.164;2023-11-21T13:03:13;9.40;9.40;6.00
77413;PMS7003;66486;49.992;19.164;2023-11-21T13:05:45;14.00;12.40;7.40
77413;PMS7003;66486;49.992;19.164;2023-11-21T13:08:16;9.20;9.20;6.20
77413;PMS7003;66486;49.992;19.164;2023-11-21T13:10:46;12.20;11.20;7.40
77413;PMS7003;66486;49.992;19.164;2023-11-21T13:13:15;10.00;10.00;9.00
77413;PMS7003;66486;49.992;19.164;2023-11-21T13:15:51;12.00;12.00;9.00
77413;PMS7003;66486;49.992;19.164;2023-11-21T13:18:19;8.60;8.60;7.00
77413;PMS7003;66486;49.992;19.164;2023-11-21T13:20:47;11.60;9.40;7.00
77413;PMS7003;66486;49.992;19.164;2023-11-21T13:23:13;10.00;10.00;6.40
77413;PMS7003;66486;49.992;19.164;2023-11-21T13:25:41;10.40;9.60;7.00
77413;PMS7003;66486;49.992;19.164;2023-11-21T13:28:08;9.00;9.00;6.40
77413;PMS7003;66486;49.992;19.164;2023-11-21T13:30:37;6.20;5.60;4.40
77413;PMS7003;66486;49.992;19.164;2023-11-21T13:36:22;7.00;7.00;4.80
77413;PMS7003;66486;49.992;19.164;2023-11-21T13:38:49;7.80;7.80;3.80
77413;PMS7003;66486;49.992;19.164;2023-11-21T13:41:17;7.00;7.00;6.00
77413;PMS7003;66486;49.992;19.164;2023-11-21T13:43:43;6.00;6.00;4.00
77413;PMS7003;66486;49.992;19.164;2023-11-21T13:46:18;9.00;9.00;5.20
77413;PMS7003;66486;49.992;19.164;2023-11-21T13:48:48;4.40;4.00;3.40
77413;PMS7003;66486;49.992;19.164;2023-11-21T13:51:21;7.00;6.00;4.80
77413;PMS7003;66486;49.992;19.164;2023-11-21T13:53:56;9.40;9.40;6.60
77413;PMS7003;66486;49.992;19.164;2023-11-21T13:56:22;9.40;7.00;3.60
77413;PMS7003;66486;49.992;19.164;2023-11-21T13:58:50;7.00;7.00;5.60
77413;PMS7003;66486;49.992;19.164;2023-11-21T14:01:20;7.00;7.00;4.00
77413;PMS7003;66486;49.992;19.164;2023-11-21T14:03:56;5.60;4.40;4.00
77413;PMS7003;66486;49.992;19.164;2023-11-21T14:06:28;17.20;17.20;9.20
77413;PMS7003;66486;49.992;19.164;2023-11-21T14:09:00;8.60;7.80;4.00